Time;durP1;ratioP1;P1;durP2;ratioP2;P2;SDS_P1;SDS_P2;PMS_P1;PMS_P2;Temp;Humidity;BMP_temperature;BMP_pressure;BME280_temperature;BME280_humidity;BME280_pressure;Samples;Min_cycle;Max_cycle;Signal;HPM_P1;HPM_P2
2022/03/09 00:00:48;;;;;;;7.70;3.83;;;;;9.50;101989.00;;;;5030062;28;20195;-79
2022/03/09 00:03:17;;;;;;;6.93;4.63;;;;;9.40;101990.00;;;;5042240;28;20637;-80
2022/03/09 00:05:44;;;;;;;5.45;3.58;;;;;9.40;101993.00;;;;5053522;28;20200;-79
2022/03/09 00:08:12;;;;;;;6.05;4.32;;;;;9.40;101998.00;;;;5062123;28;20708;-79
2022/03/09 00:10:39;;;;;;;6.88;4.57;;;;;9.30;101997.00;;;;5070222;28;20195;-79
2022/03/09 00:13:06;;;;;;;5.95;4.03;;;;;9.30;101999.00;;;;5056733;28;20210;-79
2022/03/09 00:15:33;;;;;;;5.68;4.18;;;;;9.30;101993.00;;;;5045733;28;20184;-79
2022/03/09 00:18:00;;;;;;;6.75;4.40;;;;;9.20;101993.00;;;;5033179;28;20650;-79
2022/03/09 00:20:29;;;;;;;5.70;4.60;;;;;9.20;101996.00;;;;5046935;28;20228;-79
2022/03/09 00:22:56;;;;;;;5.28;3.55;;;;;9.20;102004.00;;;;5049350;28;20663;-79
2022/03/09 00:25:23;;;;;;;6.35;4.35;;;;;9.10;101997.00;;;;5034155;28;20203;-79
2022/03/09 00:27:51;;;;;;;8.23;5.05;;;;;9.10;102005.00;;;;5047568;28;20216;-79
2022/03/09 00:30:18;;;;;;;6.88;4.53;;;;;9.10;102010.00;;;;5047780;28;20187;-79
2022/03/09 00:32:45;;;;;;;5.75;3.90;;;;;9.10;102006.00;;;;5037120;28;20250;-79
2022/03/09 00:35:12;;;;;;;5.50;4.10;;;;;9.10;102000.00;;;;5041740;28;20195;-79
2022/03/09 00:37:41;;;;;;;7.30;4.75;;;;;9.00;102002.00;;;;5029939;28;20199;-79
2022/03/09 00:40:09;;;;;;;6.65;4.80;;;;;9.00;102004.00;;;;5047546;28;20206;-79
2022/03/09 00:42:37;;;;;;;6.00;3.95;;;;;9.00;102006.00;;;;5049001;28;20199;-79
2022/03/09 00:45:05;;;;;;;7.10;4.55;;;;;9.00;102007.00;;;;5033600;28;20199;-79
2022/03/09 00:47:32;;;;;;;7.28;3.97;;;;;9.00;102006.00;;;;5045333;28;20249;-79
2022/03/09 00:50:00;;;;;;;6.65;4.63;;;;;8.90;102009.00;;;;5042665;28;20213;-79
2022/03/09 00:52:27;;;;;;;6.25;4.25;;;;;8.90;102009.00;;;;5046251;28;20591;-80
2022/03/09 00:54:56;;;;;;;6.88;4.28;;;;;8.90;102000.00;;;;5041098;28;20658;-79
2022/03/09 00:57:23;;;;;;;6.32;4.25;;;;;8.90;102010.00;;;;5041462;28;20246;-80
2022/03/09 00:59:50;;;;;;;5.78;4.22;;;;;8.90;102003.00;;;;5047252;28;20247;-79
2022/03/09 01:02:18;;;;;;;6.55;4.53;;;;;8.90;101999.00;;;;5046501;28;20206;-80
2022/03/09 01:04:45;;;;;;;5.55;4.05;;;;;8.80;101997.00;;;;5046206;28;20686;-79
2022/03/09 01:07:12;;;;;;;6.15;4.13;;;;;8.80;101998.00;;;;5045513;28;20195;-79
2022/03/09 01:09:39;;;;;;;7.47;5.10;;;;;8.80;101995.00;;;;5044209;28;20227;-79
2022/03/09 01:12:09;;;;;;;8.20;4.43;;;;;8.80;101994.00;;;;5048234;28;20287;-79
2022/03/09 01:14:36;;;;;;;7.03;4.28;;;;;8.80;101999.00;;;;5047466;28;20199;-79
2022/03/09 01:17:04;;;;;;;6.85;4.22;;;;;8.70;102001.00;;;;5039310;28;20575;-79
2022/03/09 01:19:31;;;;;;;6.53;4.53;;;;;8.70;102000.00;;;;5041291;28;20231;-79
2022/03/09 01:21:58;;;;;;;6.68;4.53;;;;;8.70;101991.00;;;;5028971;28;20204;-79
2022/03/09 01:24:25;;;;;;;6.55;4.47;;;;;8.70;101996.00;;;;5042852;28;20278;-79
2022/03/09 01:26:53;;;;;;;8.05;4.80;;;;;8.70;101990.00;;;;5045945;28;20196;-79
2022/03/09 01:29:21;;;;;;;9.68;4.30;;;;;8.60;101997.00;;;;5045581;28;20693;-77
2022/03/09 01:31:48;;;;;;;6.18;4.30;;;;;8.60;102003.00;;;;5027661;28;20197;-77
2022/03/09 01:34:16;;;;;;;7.10;3.92;;;;;8.60;102003.00;;;;5035140;28;20204;-79
2022/03/09 01:36:43;;;;;;;6.43;4.70;;;;;8.60;101998.00;;;;5047952;28;20502;-78
2022/03/09 01:39:10;;;;;;;7.75;4.75;;;;;8.50;101997.00;;;;5030062;28;20569;-79
2022/03/09 01:41:38;;;;;;;5.93;4.50;;;;;8.50;101996.00;;;;5039634;28;20261;-79
2022/03/09 01:44:10;;;;;;;5.38;4.30;;;;;8.50;101986.00;;;;5047865;28;20290;-79
2022/03/09 01:46:40;;;;;;;5.75;4.25;;;;;8.40;101982.00;;;;5045968;28;20219;-79
2022/03/09 01:49:09;;;;;;;5.78;4.20;;;;;8.40;101984.00;;;;5039251;28;20230;-79
2022/03/09 01:51:42;;;;;;;6.85;4.55;;;;;8.40;101979.00;;;;5047806;28;20192;-79
2022/03/09 01:54:10;;;;;;;6.20;4.05;;;;;8.40;101972.00;;;;5037052;28;20203;-79
2022/03/09 01:56:38;;;;;;;6.85;4.72;;;;;8.40;101977.00;;;;5038253;28;20215;-78
2022/03/09 01:59:06;;;;;;;6.15;4.55;;;;;8.30;101981.00;;;;5041702;28;20188;-79
2022/03/09 02:01:34;;;;;;;6.97;4.25;;;;;8.30;101981.00;;;;5044023;28;20211;-78
2022/03/09 02:04:03;;;;;;;5.57;4.07;;;;;8.30;101982.00;;;;5040743;28;20208;-78
2022/03/09 02:06:32;;;;;;;7.70;4.55;;;;;8.20;101978.00;;;;5046343;28;20199;-78
2022/03/09 02:11:45;;;;;;;6.82;4.45;;;;;8.20;101987.00;;;;5048049;28;20206;-79
2022/03/09 02:14:30;;;;;;;5.95;4.43;;;;;8.10;101994.00;;;;5045812;28;20203;-79
2022/03/09 02:16:58;;;;;;;6.18;4.47;;;;;8.10;101996.00;;;;5048309;28;20196;-79
2022/03/09 02:19:28;;;;;;;6.53;4.43;;;;;8.10;101988.00;;;;5045874;28;20284;-78
2022/03/09 02:22:02;;;;;;;5.88;4.07;;;;;8.10;101986.00;;;;5049343;28;20214;-79
2022/03/09 02:24:31;;;;;;;6.07;4.60;;;;;8.00;101981.00;;;;5050821;28;20203;-78
2022/03/09 02:26:58;;;;;;;8.52;4.20;;;;;8.00;101971.00;;;;5047564;28;20204;-79
2022/03/09 02:29:25;;;;;;;6.13;4.55;;;;;8.00;101974.00;;;;5044028;28;20227;-79
2022/03/09 02:31:53;;;;;;;5.55;4.15;;;;;8.00;101967.00;;;;5046449;28;20204;-79
2022/03/09 02:34:20;;;;;;;6.97;4.03;;;;;8.00;101966.00;;;;5038206;28;20215;-80
2022/03/09 02:36:48;;;;;;;7.65;4.95;;;;;8.00;101969.00;;;;5034735;28;20196;-80
2022/03/09 02:39:15;;;;;;;7.03;4.70;;;;;7.90;101964.00;;;;5042810;28;20200;-80
2022/03/09 02:41:44;;;;;;;6.85;4.97;;;;;7.90;101967.00;;;;5036775;28;20666;-80
2022/03/09 02:44:11;;;;;;;6.68;4.68;;;;;7.90;101967.00;;;;5038193;28;20208;-79
2022/03/09 02:46:39;;;;;;;7.80;4.72;;;;;7.80;101962.00;;;;5046754;28;20199;-80
2022/03/09 02:49:06;;;;;;;6.88;4.95;;;;;7.80;101961.00;;;;5047389;28;20215;-80
2022/03/09 02:51:33;;;;;;;7.57;4.90;;;;;7.80;101965.00;;;;5050708;28;20187;-80
2022/03/09 02:54:01;;;;;;;7.32;4.95;;;;;7.80;101962.00;;;;5043427;28;20233;-80
2022/03/09 02:56:28;;;;;;;6.70;4.57;;;;;7.80;101964.00;;;;5044328;28;20219;-80
2022/03/09 02:58:57;;;;;;;7.13;4.57;;;;;7.70;101964.00;;;;5036955;28;20196;-80
2022/03/09 03:01:24;;;;;;;7.28;5.32;;;;;7.70;101969.00;;;;5046083;28;20200;-80
2022/03/09 03:03:51;;;;;;;6.53;4.57;;;;;7.70;101967.00;;;;5037115;28;20215;-79
2022/03/09 03:06:18;;;;;;;7.68;4.90;;;;;7.70;101973.00;;;;5032161;28;20188;-79
2022/03/09 03:08:46;;;;;;;6.90;4.97;;;;;7.70;101974.00;;;;5048651;28;20569;-79
2022/03/09 03:11:13;;;;;;;8.50;4.85;;;;;7.60;101973.00;;;;5049724;28;20203;-79
2022/03/09 03:13:41;;;;;;;6.55;4.60;;;;;7.60;101975.00;;;;5043433;28;20203;-79
2022/03/09 03:16:11;;;;;;;6.90;4.78;;;;;7.60;101976.00;;;;5042145;28;20208;-80
2022/03/09 03:18:39;;;;;;;7.63;5.28;;;;;7.60;101965.00;;;;5038076;28;20473;-79
2022/03/09 03:21:06;;;;;;;7.78;5.03;;;;;7.60;101974.00;;;;5023319;28;20189;-79
2022/03/09 03:23:36;;;;;;;9.07;5.30;;;;;7.50;101964.00;;;;5027330;28;20207;-79
2022/03/09 03:26:05;;;;;;;6.20;4.63;;;;;7.50;101968.00;;;;5019483;28;20208;-79
2022/03/09 03:28:33;;;;;;;8.25;5.32;;;;;7.50;101964.00;;;;5016238;28;20224;-80
2022/03/09 03:31:00;;;;;;;9.10;4.90;;;;;7.50;101966.00;;;;5021824;28;20655;-79
2022/03/09 03:33:29;;;;;;;6.57;4.45;;;;;7.50;101960.00;;;;5017659;28;20192;-79
2022/03/09 03:35:56;;;;;;;7.53;4.90;;;;;7.50;101959.00;;;;5025343;28;20196;-79
2022/03/09 03:38:23;;;;;;;6.85;5.03;;;;;7.50;101961.00;;;;5019202;28;20200;-79
2022/03/09 03:40:51;;;;;;;8.00;5.03;;;;;7.40;101964.00;;;;5027419;28;20682;-79
2022/03/09 03:43:18;;;;;;;7.90;4.43;;;;;7.40;101963.00;;;;5027414;28;20283;-79
2022/03/09 03:45:45;;;;;;;8.80;5.72;;;;;7.40;101971.00;;;;5027698;28;20201;-79
2022/03/09 03:48:12;;;;;;;8.35;5.63;;;;;7.40;101971.00;;;;5022801;28;20585;-79
2022/03/09 03:50:41;;;;;;;6.80;4.88;;;;;7.40;101968.00;;;;5022268;28;20217;-79
2022/03/09 03:53:08;;;;;;;8.20;4.90;;;;;7.40;101973.00;;;;5025655;28;20674;-79
2022/03/09 03:55:36;;;;;;;7.30;4.05;;;;;7.40;101959.00;;;;5021075;28;20193;-79
2022/03/09 03:58:03;;;;;;;6.50;4.40;;;;;7.30;101962.00;;;;5018765;28;20202;-79
2022/03/09 04:00:30;;;;;;;6.43;5.15;;;;;7.30;101964.00;;;;5020822;28;20647;-79
2022/03/09 04:02:57;;;;;;;7.25;5.22;;;;;7.30;101965.00;;;;5023915;28;20205;-79
2022/03/09 04:05:24;;;;;;;7.07;4.43;;;;;7.30;101964.00;;;;5028149;28;20196;-79
2022/03/09 04:07:53;;;;;;;8.70;5.50;;;;;7.30;101971.00;;;;5024008;28;20197;-79
2022/03/09 04:10:20;;;;;;;7.25;4.57;;;;;7.30;101970.00;;;;5016474;28;20221;-79
2022/03/09 04:12:47;;;;;;;7.72;5.22;;;;;7.30;101974.00;;;;5017553;28;20196;-79
2022/03/09 04:15:15;;;;;;;7.78;5.18;;;;;7.30;101973.00;;;;5028110;28;20594;-79
2022/03/09 04:17:43;;;;;;;8.00;5.22;;;;;7.30;101963.00;;;;5018099;28;20224;-79
2022/03/09 04:20:12;;;;;;;7.65;5.20;;;;;7.30;101967.00;;;;5034527;28;20227;-79
2022/03/09 04:22:39;;;;;;;7.43;4.65;;;;;7.30;101963.00;;;;5045958;28;20216;-79
2022/03/09 04:25:09;;;;;;;7.15;5.10;;;;;7.20;101966.00;;;;5038020;28;20207;-78
2022/03/09 04:27:37;;;;;;;7.90;5.43;;;;;7.30;101955.00;;;;5045780;28;20199;-79
2022/03/09 04:30:05;;;;;;;8.73;5.15;;;;;7.20;101957.00;;;;5045485;28;20219;-79
2022/03/09 04:32:34;;;;;;;8.43;5.32;;;;;7.30;101945.00;;;;5048237;28;20191;-79
2022/03/09 04:35:01;;;;;;;6.18;4.68;;;;;7.20;101947.00;;;;5047074;28;20753;-79
2022/03/09 04:37:30;;;;;;;7.25;4.82;;;;;7.20;101962.00;;;;5035733;28;20291;-79
2022/03/09 04:39:58;;;;;;;7.35;4.93;;;;;7.20;101950.00;;;;5037449;28;20561;-79
2022/03/09 04:42:27;;;;;;;8.20;5.00;;;;;7.20;101960.00;;;;5036830;28;20192;-79
2022/03/09 04:44:55;;;;;;;7.18;5.00;;;;;7.20;101958.00;;;;5040722;28;20204;-79
2022/03/09 04:47:22;;;;;;;7.03;4.30;;;;;7.20;101954.00;;;;5047624;28;20187;-79
2022/03/09 04:49:51;;;;;;;8.15;4.97;;;;;7.20;101952.00;;;;5038616;28;20216;-79
2022/03/09 04:52:18;;;;;;;8.55;5.10;;;;;7.20;101948.00;;;;5031993;28;20621;-79
2022/03/09 04:54:45;;;;;;;8.15;5.13;;;;;7.20;101952.00;;;;5044333;28;20287;-79
2022/03/09 04:57:13;;;;;;;9.77;5.70;;;;;7.20;101951.00;;;;5034010;28;20700;-79
2022/03/09 04:59:41;;;;;;;9.95;5.32;;;;;7.10;101953.00;;;;5040185;28;20200;-78
2022/03/09 05:02:09;;;;;;;7.45;5.18;;;;;7.20;101955.00;;;;5046768;28;20249;-79
2022/03/09 05:04:36;;;;;;;7.75;5.10;;;;;7.20;101949.00;;;;5040170;28;20195;-79
2022/03/09 05:07:04;;;;;;;6.90;4.50;;;;;7.10;101945.00;;;;5046734;28;20199;-79
2022/03/09 05:09:31;;;;;;;8.27;5.18;;;;;7.10;101953.00;;;;5037094;28;20220;-80
2022/03/09 05:11:59;;;;;;;15.85;5.13;;;;;7.10;101952.00;;;;5044352;28;20200;-79
2022/03/09 05:14:26;;;;;;;8.77;5.70;;;;;7.10;101953.00;;;;5046765;28;20198;-79
2022/03/09 05:16:55;;;;;;;7.35;5.07;;;;;7.10;101961.00;;;;5042620;28;20584;-79
2022/03/09 05:19:22;;;;;;;6.43;4.70;;;;;7.10;101963.00;;;;5039571;28;20226;-79
2022/03/09 05:21:49;;;;;;;7.80;5.35;;;;;7.10;101962.00;;;;5036509;28;20204;-78
2022/03/09 05:24:17;;;;;;;6.88;4.75;;;;;7.10;101971.00;;;;5038639;28;20230;-79
2022/03/09 05:26:46;;;;;;;7.68;4.82;;;;;7.10;101961.00;;;;5039614;28;20303;-79
2022/03/09 05:29:14;;;;;;;8.65;4.32;;;;;7.10;101968.00;;;;5043202;28;20223;-79
2022/03/09 05:31:41;;;;;;;8.27;4.90;;;;;7.10;101969.00;;;;5045790;28;20298;-79
2022/03/09 05:34:10;;;;;;;7.22;4.95;;;;;7.10;101969.00;;;;5042426;28;20196;-79
2022/03/09 05:36:37;;;;;;;6.38;4.75;;;;;7.10;101971.00;;;;5044843;28;20187;-79
2022/03/09 05:39:05;;;;;;;8.00;5.15;;;;;7.10;101972.00;;;;5043025;28;20195;-79
2022/03/09 05:41:34;;;;;;;7.97;5.13;;;;;7.10;101984.00;;;;5045814;28;20203;-79
2022/03/09 05:44:01;;;;;;;8.13;5.40;;;;;7.10;101986.00;;;;5050421;28;20668;-79
2022/03/09 05:46:28;;;;;;;7.70;5.05;;;;;7.10;101984.00;;;;5051923;28;20269;-79
2022/03/09 05:48:56;;;;;;;8.35;5.10;;;;;7.00;101984.00;;;;5051040;28;20201;-79
2022/03/09 05:51:24;;;;;;;8.35;5.18;;;;;7.10;101986.00;;;;5052299;28;20194;-80
2022/03/09 05:53:51;;;;;;;6.80;4.78;;;;;7.10;101980.00;;;;5043254;28;20189;-79
2022/03/09 05:56:19;;;;;;;7.43;5.03;;;;;7.00;101991.00;;;;5050089;28;21142;-80
2022/03/09 05:58:46;;;;;;;8.73;5.80;;;;;7.10;101996.00;;;;5051657;28;20214;-78
2022/03/09 06:01:14;;;;;;;6.97;4.70;;;;;7.00;101989.00;;;;5049832;28;20196;-79
2022/03/09 06:03:41;;;;;;;8.15;5.43;;;;;7.10;101997.00;;;;5046990;28;20703;-81
2022/03/09 06:06:08;;;;;;;10.02;5.38;;;;;7.00;101991.00;;;;5048178;28;20196;-79
2022/03/09 06:08:40;;;;;;;9.73;4.75;;;;;7.00;102002.00;;;;5045099;28;20212;-80
2022/03/09 06:11:08;;;;;;;6.15;4.60;;;;;7.10;102006.00;;;;5048755;28;20227;-80
2022/03/09 06:13:35;;;;;;;9.52;4.35;;;;;7.10;102012.00;;;;5045838;28;20201;-79
2022/03/09 06:16:02;;;;;;;8.23;4.88;;;;;7.10;102013.00;;;;5048446;28;20693;-79
2022/03/09 06:18:30;;;;;;;7.95;4.38;;;;;7.10;102026.00;;;;5047977;28;20203;-79
2022/03/09 06:20:57;;;;;;;7.18;4.90;;;;;7.10;102024.00;;;;5050755;28;20242;-79
2022/03/09 06:23:24;;;;;;;7.03;4.78;;;;;7.10;102030.00;;;;5041443;28;20204;-79
2022/03/09 06:25:53;;;;;;;9.65;5.03;;;;;7.10;102028.00;;;;5043986;28;20196;-79
2022/03/09 06:28:22;;;;;;;8.10;5.38;;;;;7.10;102035.00;;;;5045033;28;20200;-79
2022/03/09 06:30:49;;;;;;;7.25;4.40;;;;;7.10;102032.00;;;;5041740;28;20769;-79
2022/03/09 06:33:17;;;;;;;8.88;4.72;;;;;7.10;102030.00;;;;5051772;28;20204;-80
2022/03/09 06:35:44;;;;;;;7.45;4.75;;;;;7.10;102028.00;;;;5047133;28;20191;-80
2022/03/09 06:38:12;;;;;;;9.30;5.07;;;;;7.10;102029.00;;;;5051456;28;20207;-80
2022/03/09 06:40:39;;;;;;;7.38;5.07;;;;;7.10;102024.00;;;;5050500;28;20200;-79
2022/03/09 06:43:08;;;;;;;7.05;4.72;;;;;7.10;102028.00;;;;5054378;28;20191;-78
2022/03/09 06:45:35;;;;;;;7.40;4.38;;;;;7.20;102035.00;;;;5052333;28;20576;-79
2022/03/09 06:48:04;;;;;;;8.45;5.25;;;;;7.20;102040.00;;;;5038534;28;20208;-79
2022/03/09 06:50:32;;;;;;;7.68;4.75;;;;;7.30;102045.00;;;;5041055;28;20315;-81
2022/03/09 06:52:59;;;;;;;8.07;4.93;;;;;7.30;102039.00;;;;5050406;28;20196;-79
2022/03/09 06:55:29;;;;;;;7.97;5.15;;;;;7.30;102052.00;;;;5055357;28;20207;-79
2022/03/09 06:57:56;;;;;;;7.38;4.18;;;;;7.40;102058.00;;;;5046062;28;20203;-79
2022/03/09 07:00:25;;;;;;;7.35;4.63;;;;;7.40;102048.00;;;;5046188;28;20206;-80
2022/03/09 07:02:53;;;;;;;7.47;4.78;;;;;7.50;102066.00;;;;5047818;28;20191;-78
2022/03/09 07:05:20;;;;;;;7.32;4.53;;;;;7.50;102057.00;;;;5045124;28;20200;-77
2022/03/09 07:07:48;;;;;;;8.50;4.35;;;;;7.60;102057.00;;;;5044854;28;20254;-78
2022/03/09 07:10:15;;;;;;;6.60;4.32;;;;;7.70;102051.00;;;;5043555;28;20231;-77
2022/03/09 07:12:44;;;;;;;9.68;4.97;;;;;7.70;102051.00;;;;5051418;28;20192;-77
2022/03/09 07:15:12;;;;;;;9.05;5.13;;;;;7.80;102060.00;;;;5048169;28;20204;-77
2022/03/09 07:17:41;;;;;;;8.05;5.25;;;;;7.90;102053.00;;;;5039027;28;20258;-77
2022/03/09 07:20:10;;;;;;;8.63;5.28;;;;;8.00;102062.00;;;;5030906;28;20216;-77
2022/03/09 07:22:37;;;;;;;8.90;4.70;;;;;8.00;102057.00;;;;5036557;28;20227;-78
2022/03/09 07:25:05;;;;;;;8.98;5.35;;;;;8.10;102058.00;;;;5050279;28;20195;-78
2022/03/09 07:27:32;;;;;;;7.47;4.82;;;;;8.20;102055.00;;;;5049658;28;20209;-78
2022/03/09 07:29:59;;;;;;;9.65;5.35;;;;;8.30;102051.00;;;;5049575;28;20592;-77
2022/03/09 07:32:27;;;;;;;6.68;4.88;;;;;8.40;102057.00;;;;5050667;28;20695;-78
2022/03/09 07:34:55;;;;;;;8.00;4.97;;;;;8.40;102049.00;;;;5050111;28;20196;-77
2022/03/09 07:37:23;;;;;;;7.47;4.50;;;;;8.50;102055.00;;;;5049673;28;20207;-77
2022/03/09 07:39:50;;;;;;;10.48;5.35;;;;;8.60;102058.00;;;;5050237;28;20223;-77
2022/03/09 07:42:17;;;;;;;6.50;4.78;;;;;8.70;102045.00;;;;5049339;28;20261;-78
2022/03/09 07:44:45;;;;;;;7.60;5.00;;;;;8.80;102048.00;;;;5049379;28;20306;-78
2022/03/09 07:47:12;;;;;;;7.97;5.20;;;;;8.90;102045.00;;;;5032314;28;20246;-78
2022/03/09 07:49:39;;;;;;;6.63;4.07;;;;;9.00;102053.00;;;;5029318;28;20204;-77
2022/03/09 07:52:08;;;;;;;8.75;5.80;;;;;9.00;102053.00;;;;5044188;28;20211;-78
2022/03/09 07:54:36;;;;;;;8.13;4.80;;;;;9.10;102053.00;;;;5049105;28;20207;-78
2022/03/09 07:57:04;;;;;;;6.30;3.95;;;;;9.20;102058.00;;;;5047374;28;20226;-78
2022/03/09 07:59:31;;;;;;;7.45;4.70;;;;;9.30;102059.00;;;;5049017;28;20265;-78
2022/03/09 08:01:59;;;;;;;6.85;5.05;;;;;9.40;102062.00;;;;5036696;28;20223;-78
2022/03/09 08:04:26;;;;;;;9.52;5.28;;;;;9.50;102063.00;;;;5029293;28;20203;-78
2022/03/09 08:06:55;;;;;;;7.25;4.55;;;;;9.50;102055.00;;;;5059955;28;20206;-78
2022/03/09 08:09:24;;;;;;;8.10;5.20;;;;;9.60;102062.00;;;;5048678;28;20218;-77
2022/03/09 08:11:52;;;;;;;5.85;4.70;;;;;9.70;102064.00;;;;5048978;28;20196;-78
2022/03/09 08:14:19;;;;;;;9.25;4.97;;;;;9.80;102064.00;;;;5043962;28;20191;-79
2022/03/09 08:16:47;;;;;;;8.32;4.50;;;;;9.90;102067.00;;;;5037654;28;20291;-78
2022/03/09 08:19:14;;;;;;;10.93;5.63;;;;;9.90;102070.00;;;;5036523;28;20311;-79
2022/03/09 08:21:41;;;;;;;7.82;4.93;;;;;10.00;102066.00;;;;5028817;28;20219;-79
2022/03/09 08:24:09;;;;;;;7.45;5.13;;;;;10.10;102073.00;;;;5044341;28;20199;-79
2022/03/09 08:26:37;;;;;;;6.68;4.85;;;;;10.20;102074.00;;;;5033074;28;20198;-78
2022/03/09 08:29:05;;;;;;;6.75;4.80;;;;;10.30;102072.00;;;;5045145;28;20237;-78
2022/03/09 08:31:32;;;;;;;5.72;4.95;;;;;10.30;102077.00;;;;5036739;28;20685;-78
2022/03/09 08:33:59;;;;;;;9.05;5.07;;;;;10.40;102082.00;;;;5048499;28;20214;-78
2022/03/09 08:36:26;;;;;;;8.75;5.50;;;;;10.50;102069.00;;;;5047998;28;20199;-78
2022/03/09 08:38:55;;;;;;;7.28;5.18;;;;;10.60;102085.00;;;;5047855;28;20195;-78
2022/03/09 08:41:24;;;;;;;7.65;5.28;;;;;10.70;102077.00;;;;5046691;28;20242;-78
2022/03/09 08:43:53;;;;;;;7.50;5.38;;;;;10.70;102079.00;;;;5042790;28;20672;-78
2022/03/09 08:46:20;;;;;;;7.50;5.20;;;;;10.80;102081.00;;;;5032288;28;20200;-78
2022/03/09 08:48:48;;;;;;;7.95;4.65;;;;;10.90;102073.00;;;;5038100;28;20187;-78
2022/03/09 08:51:17;;;;;;;6.10;4.45;;;;;11.00;102079.00;;;;5047222;28;20518;-78
2022/03/09 08:53:44;;;;;;;7.85;4.55;;;;;11.10;102080.00;;;;5046809;28;20196;-78
2022/03/09 08:56:12;;;;;;;7.45;4.40;;;;;11.10;102082.00;;;;5046446;28;20215;-78
2022/03/09 08:58:39;;;;;;;7.22;4.72;;;;;11.20;102084.00;;;;5044375;28;20195;-78
2022/03/09 09:01:09;;;;;;;8.10;5.32;;;;;11.30;102078.00;;;;5048277;28;20277;-78
2022/03/09 09:03:36;;;;;;;7.93;5.25;;;;;11.40;102086.00;;;;5047452;28;20677;-78
2022/03/09 09:06:03;;;;;;;7.57;4.78;;;;;11.50;102081.00;;;;5047174;28;20665;-78
2022/03/09 09:08:31;;;;;;;7.28;4.68;;;;;11.60;102088.00;;;;5042138;28;20200;-79
2022/03/09 09:10:58;;;;;;;6.68;4.35;;;;;11.70;102088.00;;;;5036953;28;20912;-79
2022/03/09 09:13:25;;;;;;;7.25;4.80;;;;;11.80;102090.00;;;;5043983;28;20196;-79
2022/03/09 09:15:52;;;;;;;8.18;4.85;;;;;12.00;102089.00;;;;5032920;28;21216;-79
2022/03/09 09:18:21;;;;;;;7.93;5.65;;;;;12.00;102092.00;;;;5046963;28;20191;-79
2022/03/09 09:20:48;;;;;;;7.63;5.38;;;;;12.10;102089.00;;;;5047062;28;20240;-79
2022/03/09 09:23:16;;;;;;;7.10;4.78;;;;;12.20;102086.00;;;;5046804;28;20625;-79
2022/03/09 09:25:44;;;;;;;7.95;5.28;;;;;12.30;102093.00;;;;5047546;28;20309;-80
2022/03/09 09:28:11;;;;;;;8.40;5.43;;;;;12.40;102096.00;;;;5044512;28;20203;-79
2022/03/09 09:30:39;;;;;;;7.80;5.65;;;;;12.50;102092.00;;;;5030654;28;20191;-79
2022/03/09 09:33:06;;;;;;;8.00;5.43;;;;;12.60;102093.00;;;;5039260;28;20211;-79
2022/03/09 09:35:35;;;;;;;8.32;5.28;;;;;12.60;102095.00;;;;5037388;28;20199;-79
2022/03/09 09:38:06;;;;;;;7.63;5.15;;;;;12.70;102095.00;;;;5037027;28;20200;-80
2022/03/09 09:40:35;;;;;;;7.20;4.85;;;;;12.80;102097.00;;;;5028117;28;20244;-80
2022/03/09 09:43:07;;;;;;;7.25;5.05;;;;;12.90;102098.00;;;;5037234;28;20287;-80
2022/03/09 09:45:35;;;;;;;8.27;5.13;;;;;13.00;102097.00;;;;5047083;28;20196;-80
2022/03/09 09:48:03;;;;;;;6.35;4.78;;;;;13.10;102096.00;;;;5045668;28;20200;-81
2022/03/09 09:50:31;;;;;;;8.07;5.10;;;;;13.20;102096.00;;;;5046882;28;20195;-81
2022/03/09 09:53:03;;;;;;;7.70;5.38;;;;;13.30;102091.00;;;;5039495;28;20235;-80
2022/03/09 09:55:31;;;;;;;7.60;5.53;;;;;13.40;102079.00;;;;5028254;28;20208;-80
2022/03/09 09:57:59;;;;;;;7.07;5.15;;;;;13.50;102087.00;;;;5046587;28;20672;-79
2022/03/09 10:00:27;;;;;;;10.25;5.63;;;;;13.70;102081.00;;;;5045896;28;20191;-79
2022/03/09 10:02:54;;;;;;;9.85;5.60;;;;;13.80;102086.00;;;;5047550;28;20211;-79
2022/03/09 10:05:21;;;;;;;8.70;6.15;;;;;13.90;102073.00;;;;5041862;28;20192;-77
2022/03/09 10:08:10;;;;;;;8.57;6.07;;;;;13.90;102086.00;;;;5027629;28;20199;-78
2022/03/09 10:10:40;;;;;;;8.70;5.80;;;;;14.00;102077.00;;;;5033526;28;20278;-78
2022/03/09 10:13:16;;;;;;;8.88;6.07;;;;;14.10;102085.00;;;;5042223;28;20191;-78
2022/03/09 10:15:44;;;;;;;8.57;5.60;;;;;14.30;102078.00;;;;5045768;28;20199;-78
2022/03/09 10:18:20;;;;;;;8.35;5.65;;;;;14.30;102080.00;;;;5038080;28;20207;-78
2022/03/09 10:20:49;;;;;;;6.63;4.82;;;;;14.50;102077.00;;;;5046027;28;20338;-78
2022/03/09 10:23:21;;;;;;;8.50;5.47;;;;;14.60;102072.00;;;;5041518;28;20189;-78
2022/03/09 10:25:48;;;;;;;7.95;5.72;;;;;14.70;102076.00;;;;5029826;28;20197;-79
2022/03/09 10:28:16;;;;;;;9.07;6.10;;;;;14.80;102071.00;;;;5047078;28;20675;-79
2022/03/09 10:30:44;;;;;;;8.23;5.65;;;;;14.90;102082.00;;;;5035753;28;20662;-80
2022/03/09 10:33:12;;;;;;;8.35;6.15;;;;;15.00;102077.00;;;;5045206;28;20200;-80
2022/03/09 10:35:44;;;;;;;9.07;6.25;;;;;15.10;102083.00;;;;5051371;28;20203;-80
2022/03/09 10:38:25;;;;;;;9.80;6.15;;;;;15.10;102083.00;;;;5033774;28;20204;-80
2022/03/09 10:40:55;;;;;;;9.55;5.88;;;;;15.30;102089.00;;;;5051158;28;20219;-80
2022/03/09 10:43:24;;;;;;;9.25;5.75;;;;;15.40;102091.00;;;;5037882;28;20659;-80
2022/03/09 10:46:05;;;;;;;9.60;6.32;;;;;15.40;102084.00;;;;5031264;28;20566;-80
2022/03/09 10:48:55;;;;;;;8.98;5.72;;;;;15.50;102079.00;;;;5042319;28;20278;-80
2022/03/09 10:51:31;;;;;;;10.80;6.88;;;;;15.60;102092.00;;;;5049938;28;20314;-80
2022/03/09 10:54:03;;;;;;;10.60;6.78;;;;;15.80;102095.00;;;;5046314;28;20192;-80
2022/03/09 10:56:31;;;;;;;9.15;5.78;;;;;15.90;102092.00;;;;5032181;28;20270;-80
2022/03/09 10:59:10;;;;;;;11.25;7.95;;;;;15.90;102084.00;;;;5041958;28;20736;-80
2022/03/09 11:01:38;;;;;;;9.88;6.85;;;;;16.10;102090.00;;;;5042502;28;20227;-80
2022/03/09 11:04:13;;;;;;;10.55;6.53;;;;;16.20;102085.00;;;;5050429;28;20200;-81
2022/03/09 11:06:46;;;;;;;10.95;6.90;;;;;16.30;102081.00;;;;5031511;28;20223;-80
2022/03/09 11:09:16;;;;;;;10.07;7.20;;;;;16.40;102076.00;;;;5046956;28;20206;-80
2022/03/09 11:11:45;;;;;;;9.85;7.22;;;;;16.50;102071.00;;;;5046213;28;20286;-80
2022/03/09 11:14:14;;;;;;;11.25;7.07;;;;;16.60;102082.00;;;;5030961;28;20199;-81
2022/03/09 11:16:42;;;;;;;12.02;7.28;;;;;16.70;102076.00;;;;5037298;28;20281;-81
2022/03/09 11:19:10;;;;;;;10.63;6.78;;;;;16.80;102068.00;;;;5049404;28;20227;-80
2022/03/09 11:21:38;;;;;;;8.52;6.50;;;;;16.90;102064.00;;;;5045523;28;20310;-81
2022/03/09 11:24:07;;;;;;;9.77;6.72;;;;;17.00;102061.00;;;;5033145;28;20203;-80
2022/03/09 11:26:40;;;;;;;10.00;6.97;;;;;17.00;102061.00;;;;5034350;28;20203;-81
2022/03/09 11:29:12;;;;;;;10.70;6.85;;;;;17.20;102066.00;;;;5045742;28;20608;-80
2022/03/09 11:31:51;;;;;;;12.02;7.60;;;;;17.20;102066.00;;;;5035579;28;20963;-80
2022/03/09 11:34:35;;;;;;;10.85;7.20;;;;;17.30;102050.00;;;;5048861;28;20601;-81
2022/03/09 11:37:06;;;;;;;12.70;7.60;;;;;17.40;102048.00;;;;5041144;28;20713;-80
2022/03/09 11:39:33;;;;;;;11.23;7.68;;;;;17.50;102051.00;;;;5038118;28;20199;-81
2022/03/09 11:42:34;;;;;;;10.50;6.85;;;;;17.50;102053.00;;;;5046371;28;20231;-80
2022/03/09 11:45:30;;;;;;;12.43;7.32;;;;;17.60;102049.00;;;;5058600;28;20191;-81
2022/03/09 11:48:00;;;;;;;9.88;7.07;;;;;17.70;102050.00;;;;5050015;28;20218;-80
2022/03/09 11:50:29;;;;;;;12.43;7.57;;;;;17.80;102051.00;;;;5047447;28;20287;-80
2022/03/09 11:53:00;;;;;;;10.23;7.88;;;;;17.90;102041.00;;;;5046460;28;20350;-79
2022/03/09 11:55:28;;;;;;;9.30;6.72;;;;;18.00;102040.00;;;;5049411;28;20203;-80
2022/03/09 11:58:09;;;;;;;10.77;7.30;;;;;18.00;102039.00;;;;5041059;28;20227;-80
2022/03/09 12:00:37;;;;;;;11.23;8.00;;;;;18.10;102041.00;;;;5050333;28;20199;-80
2022/03/09 12:03:05;;;;;;;11.25;7.65;;;;;18.20;102043.00;;;;5049580;28;20693;-80
2022/03/09 12:05:41;;;;;;;12.93;8.13;;;;;18.20;102036.00;;;;5037905;28;20200;-80
2022/03/09 12:08:10;;;;;;;12.10;8.48;;;;;18.30;102032.00;;;;5029333;28;20200;-80
2022/03/09 12:10:51;;;;;;;12.82;7.65;;;;;18.20;102033.00;;;;5046152;28;20204;-79
2022/03/09 12:13:31;;;;;;;17.40;8.07;;;;;18.40;102028.00;;;;5049342;28;20218;-78
2022/03/09 12:16:12;;;;;;;11.57;6.97;;;;;18.50;102038.00;;;;5049547;28;20230;-79
2022/03/09 12:18:41;;;;;;;11.13;8.40;;;;;18.60;102034.00;;;;5037108;28;20200;-79
2022/03/09 12:21:10;;;;;;;12.73;7.28;;;;;18.60;102036.00;;;;5049205;28;20688;-80
2022/03/09 12:24:33;;;;;;;12.65;7.95;;;;;18.60;102037.00;;;;5049538;28;20191;-80